De Xin Hai — BQBP — position and weather

sailwx.info

Track history (hours):
 
Tides and Currents Weather Stations Pressure Air Temp Water Temp Dewpoint Dewpoint Depression Visibility Wind Speed Wind Dir Waves Ship Positions

De Xin Hai

Last reported at 2016-May-11 08:08 UTC. Time now 2016-May-27 08:26 UTC.
Position N 35°38' E 015°07'.
Warning: this ship's position is 16 days out of date.

Length 225 m; draft 6.9 m.

Type: Cargo ship. MMSI: 367344200.

Date/timePositionNaut miles runAvg speedWind from/ knotsBaromVisibWave heightAir tempDewpointWater temp
2016-May-11 08:08N 35°38' E 015°07'2810.7
2016-May-11 05:32N 35°43' E 014°33'1010.1
2016-May-11 04:33N 35°45' E 014°21'8 7.6
2016-May-11 03:33N 35°52' E 014°17'5 5.3
2016-May-11 02:33N 35°57' E 014°19'0 0.1
2016-May-11 01:33N 35°57' E 014°19'0 0.0
2016-May-11 00:33N 35°57' E 014°19'0 0.0
2016-May-10 23:33N 35°57' E 014°19'0 0.0
2016-May-10 22:33N 35°57' E 014°19'0 0.1
2016-May-10 21:33N 35°57' E 014°19'0 0.0
2016-May-10 20:30N 35°57' E 014°19'0 0.1
2016-May-10 19:33N 35°57' E 014°19'0 0.0
2016-May-10 18:33N 35°57' E 014°19'0 0.0
2016-May-10 17:33N 35°57' E 014°19'0 0.0
2016-May-10 16:33N 35°57' E 014°19'0 0.0
2016-May-10 15:33N 35°57' E 014°19'0 0.0
2016-May-10 14:33N 35°57' E 014°19'0 0.0
2016-May-10 13:33N 35°57' E 014°19'0 0.0
2016-May-10 12:33N 35°57' E 014°19'1 1.3
2016-May-10 11:33N 35°58' E 014°18'8 7.8
2016-May-10 10:33N 36°01' E 014°09'8 7.6
2016-May-10 09:33N 36°05' E 014°01'1010.1
2016-May-10 08:33N 36°10' E 013°50'10 9.8
2016-May-10 07:33N 36°15' E 013°40'2210.1
2016-May-10 05:23N 36°26' E 013°16'810.3
2016-May-10 04:33N 36°31' E 013°07'  
2016-May-06 14:33N 35°59' W 005°16'250 9.3
2016-May-05 11:33N 37°55' W 009°53'1010.3
2016-May-05 10:33N 38°05' W 009°56'1110.6
2016-May-05 09:32N 38°16' W 009°59'1110.7
2016-May-05 08:32N 38°26' W 010°02'1110.8
2016-May-05 07:32N 38°37' W 010°05'1110.9
2016-May-05 06:33N 38°48' W 010°07'1311.3
2016-May-05 05:23N 39°01' W 010°07'  
2016-May-02 08:28N 49°42' W 003°52'1211.0
2016-May-02 07:25N 49°48' W 003°37'910.8
2016-May-02 06:33N 49°53' W 003°25'1010.3
2016-May-02 05:33N 49°57' W 003°10'10 9.9
2016-May-02 04:33N 49°59' W 002°55'10 9.3
2016-May-02 03:29N 50°01' W 002°40'7710.6
2016-May-01 20:16N 50°22' W 000°44'1011.9
2016-May-01 19:24N 50°25' W 000°28'1011.3
2016-May-01 18:33N 50°28' W 000°14'1110.6
2016-May-01 17:33N 50°31' E 000°02'1010.0
2016-May-01 16:33N 50°33' E 000°17'14 9.6
2016-May-01 15:04N 50°39' E 000°38'2911.1
2016-May-01 12:27N 50°56' E 001°15'1112.1
2016-May-01 11:33N 51°04' E 001°26'1111.1
2016-May-01 10:33N 51°11' E 001°40'1010.5
2016-May-01 09:33N 51°20' E 001°50'1010.0
2016-May-01 08:33N 51°29' E 001°58'  
Track history (hours):
 
Tides and Currents Weather Stations Pressure Air Temp Water Temp Dewpoint Dewpoint Depression Visibility Wind Speed Wind Dir Waves Ship Positions

De Xin Hai

Last reported at 2016-May-11 08:08 UTC. Time now 2016-May-27 08:26 UTC.
Position N 35°38' E 015°07'.
Warning: this ship's position is 16 days out of date.

Length 225 m; draft 6.9 m.

Type: Cargo ship. MMSI: 367344200.

Date/timePositionNaut miles runAvg speedWind from/ knotsBaromVisibWave heightAir tempDewpointWater temp
2016-May-11 08:08N 35°38' E 015°07'2810.7
2016-May-11 05:32N 35°43' E 014°33'1010.1
2016-May-11 04:33N 35°45' E 014°21'8 7.6
2016-May-11 03:33N 35°52' E 014°17'5 5.3
2016-May-11 02:33N 35°57' E 014°19'0 0.1
2016-May-11 01:33N 35°57' E 014°19'0 0.0
2016-May-11 00:33N 35°57' E 014°19'0 0.0
2016-May-10 23:33N 35°57' E 014°19'0 0.0
2016-May-10 22:33N 35°57' E 014°19'0 0.1
2016-May-10 21:33N 35°57' E 014°19'0 0.0
2016-May-10 20:30N 35°57' E 014°19'0 0.1
2016-May-10 19:33N 35°57' E 014°19'0 0.0
2016-May-10 18:33N 35°57' E 014°19'0 0.0
2016-May-10 17:33N 35°57' E 014°19'0 0.0
2016-May-10 16:33N 35°57' E 014°19'0 0.0
2016-May-10 15:33N 35°57' E 014°19'0 0.0
2016-May-10 14:33N 35°57' E 014°19'0 0.0
2016-May-10 13:33N 35°57' E 014°19'0 0.0
2016-May-10 12:33N 35°57' E 014°19'1 1.3
2016-May-10 11:33N 35°58' E 014°18'8 7.8
2016-May-10 10:33N 36°01' E 014°09'8 7.6
2016-May-10 09:33N 36°05' E 014°01'1010.1
2016-May-10 08:33N 36°10' E 013°50'10 9.8
2016-May-10 07:33N 36°15' E 013°40'2210.1
2016-May-10 05:23N 36°26' E 013°16'810.3
2016-May-10 04:33N 36°31' E 013°07'  
2016-May-06 14:33N 35°59' W 005°16'250 9.3
2016-May-05 11:33N 37°55' W 009°53'1010.3
2016-May-05 10:33N 38°05' W 009°56'1110.6
2016-May-05 09:32N 38°16' W 009°59'1110.7
2016-May-05 08:32N 38°26' W 010°02'1110.8
2016-May-05 07:32N 38°37' W 010°05'1110.9
2016-May-05 06:33N 38°48' W 010°07'1311.3
2016-May-05 05:23N 39°01' W 010°07'  
2016-May-02 08:28N 49°42' W 003°52'1211.0
2016-May-02 07:25N 49°48' W 003°37'910.8
2016-May-02 06:33N 49°53' W 003°25'1010.3
2016-May-02 05:33N 49°57' W 003°10'10 9.9
2016-May-02 04:33N 49°59' W 002°55'10 9.3
2016-May-02 03:29N 50°01' W 002°40'7710.6
2016-May-01 20:16N 50°22' W 000°44'1011.9
2016-May-01 19:24N 50°25' W 000°28'1011.3
2016-May-01 18:33N 50°28' W 000°14'1110.6
2016-May-01 17:33N 50°31' E 000°02'1010.0
2016-May-01 16:33N 50°33' E 000°17'14 9.6
2016-May-01 15:04N 50°39' E 000°38'2911.1
2016-May-01 12:27N 50°56' E 001°15'1112.1
2016-May-01 11:33N 51°04' E 001°26'1111.1
2016-May-01 10:33N 51°11' E 001°40'1010.5
2016-May-01 09:33N 51°20' E 001°50'1010.0
2016-May-01 08:33N 51°29' E 001°58'  

Dump ship's entire track history